Time;durP1;ratioP1;P1;durP2;ratioP2;P2;SDS_P1;SDS_P2;PMS_P1;PMS_P2;Temp;Humidity;BMP_temperature;BMP_pressure;BME280_temperature;BME280_humidity;BME280_pressure;Samples;Min_cycle;Max_cycle;Signal;HPM_P1;HPM_P2
2021/12/01 00:02:22;;;;;;;8.45;6.90;;;23.60;99.90;;;;;;5007139;28;20391;-88
2021/12/01 00:04:49;;;;;;;10.25;6.72;;;23.60;99.90;;;;;;5006117;28;20410;-88
2021/12/01 00:07:17;;;;;;;8.18;6.50;;;23.70;99.90;;;;;;5006973;28;20378;-89
2021/12/01 00:09:44;;;;;;;7.57;6.35;;;23.60;99.90;;;;;;5007304;28;20387;-88
2021/12/01 00:12:12;;;;;;;7.03;6.32;;;23.60;99.90;;;;;;5005802;28;20399;-88
2021/12/01 00:14:39;;;;;;;7.63;6.20;;;23.50;99.90;;;;;;5006047;28;20398;-89
2021/12/01 00:17:12;;;;;;;7.80;6.20;;;23.40;99.90;;;;;;5006324;28;20383;-89
2021/12/01 00:19:40;;;;;;;8.05;6.30;;;23.40;99.90;;;;;;5011477;28;20402;-89
2021/12/01 00:22:07;;;;;;;8.07;6.03;;;23.50;99.90;;;;;;5010251;28;20383;-88
2021/12/01 00:24:34;;;;;;;8.50;5.82;;;23.50;99.90;;;;;;5008548;28;20419;-88
2021/12/01 00:27:02;;;;;;;6.93;5.45;;;23.50;99.90;;;;;;5007252;28;20863;-88
2021/12/01 00:29:29;;;;;;;7.97;5.45;;;23.50;99.90;;;;;;5006038;28;20875;-90
2021/12/01 00:31:56;;;;;;;5.90;5.18;;;23.60;99.90;;;;;;5005634;28;20390;-88
2021/12/01 00:34:25;;;;;;;6.47;5.20;;;23.80;99.90;;;;;;5007065;28;20418;-88
2021/12/01 00:36:52;;;;;;;7.15;5.50;;;23.90;99.90;;;;;;5005684;28;20720;-88
2021/12/01 00:39:24;;;;;;;6.65;5.32;;;23.80;99.90;;;;;;5006476;28;20409;-88
2021/12/01 00:41:52;;;;;;;8.20;5.47;;;23.80;99.90;;;;;;5007008;28;20418;-89
2021/12/01 00:44:21;;;;;;;6.97;5.35;;;23.90;99.90;;;;;;5006814;28;20409;-88
2021/12/01 00:49:46;;;;;;;8.27;6.00;;;23.90;99.90;;;;;;4993904;28;21073;-89
2021/12/01 00:52:13;;;;;;;8.50;5.80;;;24.10;99.90;;;;;;5008549;28;20375;-88
2021/12/01 00:54:40;;;;;;;8.27;5.70;;;24.30;99.90;;;;;;5010451;28;20384;-88
2021/12/01 00:57:07;;;;;;;7.43;5.57;;;24.50;99.90;;;;;;5010564;28;20391;-88
2021/12/01 00:59:34;;;;;;;7.15;5.85;;;24.90;99.90;;;;;;5010242;28;20387;-89
2021/12/01 01:02:02;;;;;;;9.45;5.70;;;25.10;99.90;;;;;;5010296;28;20387;-88
2021/12/01 01:04:29;;;;;;;7.75;5.40;;;25.20;99.90;;;;;;5008706;28;20481;-88
2021/12/01 01:06:56;;;;;;;9.45;5.50;;;25.10;99.90;;;;;;5010340;28;20374;-87
2021/12/01 01:09:30;;;;;;;7.65;5.40;;;25.30;99.90;;;;;;5009967;28;20383;-87
2021/12/01 01:17:38;;;;;;;8.60;5.32;;;26.10;99.90;;;;;;5011969;28;20425;-89
2021/12/01 01:20:13;;;;;;;8.65;5.45;;;26.00;99.80;;;;;;4994065;28;20387;-91
2021/12/01 01:22:41;;;;;;;7.47;5.35;;;26.20;99.90;;;;;;5011784;28;20378;-89
2021/12/01 01:25:10;;;;;;;11.23;5.57;;;26.20;99.70;;;;;;5013528;28;20407;-89
2021/12/01 01:27:37;;;;;;;7.30;4.95;;;26.30;99.90;;;;;;5003739;28;20471;-89
2021/12/01 01:30:05;;;;;;;7.03;5.13;;;26.80;99.00;;;;;;5023450;28;20382;-89
2021/12/01 01:32:36;;;;;;;9.30;5.10;;;27.40;97.50;;;;;;5022292;28;20374;-89
2021/12/01 01:35:03;;;;;;;6.82;4.97;;;28.00;96.20;;;;;;5012850;28;20382;-88
2021/12/01 01:37:30;;;;;;;5.93;5.00;;;28.00;95.10;;;;;;5010389;28;20387;-89
2021/12/01 01:39:57;;;;;;;7.03;4.72;;;27.90;95.40;;;;;;5010058;28;20755;-89
2021/12/01 01:42:24;;;;;;;10.00;4.88;;;27.60;94.00;;;;;;5009408;28;20505;-89
2021/12/01 01:44:52;;;;;;;9.07;5.30;;;27.50;95.60;;;;;;4991970;28;20527;-88
2021/12/01 01:47:23;;;;;;;12.10;5.38;;;27.60;95.10;;;;;;4992006;28;20831;-88
2021/12/01 01:52:30;;;;;;;8.70;5.10;;;26.80;96.60;;;;;;5010278;28;20382;-88
2021/12/01 01:54:57;;;;;;;8.13;4.70;;;26.70;97.30;;;;;;5009827;28;20470;-89
2021/12/01 01:57:24;;;;;;;6.88;4.93;;;26.80;97.50;;;;;;4991696;28;20391;-88
2021/12/01 01:59:52;;;;;;;7.05;4.70;;;27.00;97.00;;;;;;5009857;28;20384;-88
2021/12/01 02:02:19;;;;;;;7.57;4.83;;;27.20;96.80;;;;;;4992007;28;20924;-88
2021/12/01 02:04:46;;;;;;;10.52;4.70;;;27.40;95.70;;;;;;4991032;28;20411;-88
2021/12/01 02:07:13;;;;;;;7.60;4.50;;;27.70;95.10;;;;;;4991293;28;20383;-89
2021/12/01 02:09:40;;;;;;;9.10;5.30;;;27.60;94.70;;;;;;4991375;28;20526;-89
2021/12/01 02:12:09;;;;;;;8.20;4.97;;;27.40;95.30;;;;;;4997681;28;20403;-88
2021/12/01 02:14:36;;;;;;;8.82;4.80;;;26.90;96.10;;;;;;5008012;28;20391;-89
2021/12/01 02:17:04;;;;;;;6.80;4.30;;;26.60;97.40;;;;;;5009153;28;20391;-89
2021/12/01 02:19:31;;;;;;;9.48;5.13;;;26.30;97.50;;;;;;5009257;28;20906;-89
2021/12/01 02:21:58;;;;;;;6.75;4.00;;;26.40;98.60;;;;;;5007787;28;20388;-88
2021/12/01 02:24:26;;;;;;;10.82;4.60;;;26.50;97.20;;;;;;5008829;28;20407;-90
2021/12/01 02:26:54;;;;;;;12.90;4.57;;;26.40;97.30;;;;;;5008823;28;20383;-89
2021/12/01 02:29:24;;;;;;;8.65;4.22;;;26.50;97.20;;;;;;5007362;28;20391;-89
2021/12/01 02:31:51;;;;;;;6.45;3.40;;;26.80;97.10;;;;;;5007418;28;20398;-88
2021/12/01 02:34:21;;;;;;;4.13;3.20;;;27.00;95.60;;;;;;5007561;28;20383;-89
2021/12/01 02:36:52;;;;;;;3.70;3.22;;;27.30;93.80;;;;;;5008775;28;20470;-88
2021/12/01 02:39:19;;;;;;;4.50;2.90;;;27.10;93.80;;;;;;5008522;28;20414;-89
2021/12/01 02:41:52;;;;;;;3.38;2.72;;;27.00;93.50;;;;;;5008462;28;20371;-90
2021/12/01 02:44:20;;;;;;;3.47;2.60;;;27.30;92.00;;;;;;5007543;28;20783;-88
2021/12/01 02:46:48;;;;;;;5.20;2.40;;;27.70;92.50;;;;;;5008082;28;20426;-89
2021/12/01 02:49:20;;;;;;;3.92;2.50;;;28.20;90.70;;;;;;5009831;28;20847;-90
2021/12/01 02:51:49;;;;;;;4.88;2.50;;;28.70;91.60;;;;;;5008733;28;20398;-88
2021/12/01 02:54:16;;;;;;;4.45;2.30;;;30.00;88.80;;;;;;5008197;28;20736;-88
2021/12/01 02:56:48;;;;;;;3.17;2.10;;;31.00;77.30;;;;;;5007575;28;20793;-89
2021/12/01 02:59:16;;;;;;;2.20;1.70;;;31.30;70.50;;;;;;5008979;28;20379;-88
2021/12/01 03:01:44;;;;;;;1.80;1.20;;;30.70;68.80;;;;;;5007651;28;20729;-89
2021/12/01 03:04:13;;;;;;;1.42;1.10;;;29.90;72.20;;;;;;5008158;28;20553;-89
2021/12/01 03:06:43;;;;;;;2.78;1.20;;;29.20;75.80;;;;;;5009136;28;20403;-88
2021/12/01 03:09:12;;;;;;;3.88;1.10;;;28.50;79.30;;;;;;5008616;28;20372;-88
2021/12/01 03:11:39;;;;;;;1.13;0.82;;;27.90;81.90;;;;;;5007885;28;20403;-88
2021/12/01 03:14:17;;;;;;;2.80;0.90;;;27.40;83.10;;;;;;5008160;28;20371;-89
2021/12/01 03:16:46;;;;;;;1.58;1.10;;;27.10;85.90;;;;;;4990418;28;20467;-88
2021/12/01 03:19:13;;;;;;;1.17;0.90;;;26.80;89.20;;;;;;5007786;28;20397;-88
2021/12/01 03:21:42;;;;;;;1.40;0.98;;;26.60;90.10;;;;;;4990520;28;20872;-88
2021/12/01 03:24:10;;;;;;;3.63;1.90;;;26.50;91.10;;;;;;5009054;28;20407;-88
2021/12/01 03:26:37;;;;;;;4.38;2.97;;;26.50;92.40;;;;;;5013744;28;20379;-89
2021/12/01 03:29:06;;;;;;;6.18;3.60;;;26.40;93.70;;;;;;4996369;28;20933;-89
2021/12/01 03:31:34;;;;;;;10.27;3.63;;;26.50;94.70;;;;;;5016183;28;20478;-88
2021/12/01 03:34:02;;;;;;;4.78;2.88;;;26.50;94.20;;;;;;5015399;28;20746;-89
2021/12/01 03:36:29;;;;;;;5.30;2.97;;;26.40;94.30;;;;;;4994685;28;20391;-89
2021/12/01 03:38:57;;;;;;;3.13;2.70;;;26.20;94.50;;;;;;5009265;28;20395;-88
2021/12/01 03:41:24;;;;;;;4.40;2.60;;;26.20;95.70;;;;;;4991462;28;20812;-90
2021/12/01 03:43:52;;;;;;;3.60;2.50;;;26.20;95.60;;;;;;4990379;28;20489;-90
2021/12/01 03:46:19;;;;;;;4.75;2.85;;;26.20;95.70;;;;;;5007888;28;20383;-89
2021/12/01 03:48:46;;;;;;;2.88;2.50;;;26.40;95.20;;;;;;5007790;28;20391;-88
2021/12/01 03:51:13;;;;;;;5.38;3.00;;;26.70;93.80;;;;;;4989913;28;20383;-89
2021/12/01 03:53:41;;;;;;;2.40;2.20;;;26.80;93.90;;;;;;5007683;28;20384;-89
2021/12/01 03:56:08;;;;;;;3.65;2.20;;;27.00;92.50;;;;;;4990471;28;21059;-89
2021/12/01 03:58:35;;;;;;;4.00;2.10;;;26.90;92.10;;;;;;5007436;28;20509;-89
2021/12/01 04:01:02;;;;;;;2.88;2.13;;;26.90;92.00;;;;;;4989912;28;20387;-88
2021/12/01 04:03:29;;;;;;;3.17;2.17;;;26.90;92.40;;;;;;5007252;28;20541;-88
2021/12/01 04:05:57;;;;;;;3.13;2.20;;;26.80;92.40;;;;;;5007448;28;20473;-89
2021/12/01 04:08:24;;;;;;;2.83;2.10;;;26.90;92.90;;;;;;5008091;28;20381;-89
2021/12/01 04:10:51;;;;;;;4.18;2.20;;;27.10;92.30;;;;;;5007758;28;20399;-89
2021/12/01 04:13:18;;;;;;;3.03;2.25;;;27.30;91.50;;;;;;5007615;28;20453;-90
2021/12/01 04:15:46;;;;;;;3.63;2.20;;;27.30;91.50;;;;;;5010045;28;20383;-88
2021/12/01 04:18:13;;;;;;;3.00;2.10;;;27.20;91.90;;;;;;5023578;28;20406;-89
2021/12/01 04:20:40;;;;;;;2.17;1.88;;;27.20;91.60;;;;;;5014069;28;20875;-89
2021/12/01 04:23:07;;;;;;;4.35;1.90;;;27.30;91.00;;;;;;5007222;28;20396;-89
2021/12/01 04:25:35;;;;;;;3.78;1.85;;;29.00;91.00;;;;;;5006964;28;20387;-89
2021/12/01 04:28:02;;;;;;;2.25;1.70;;;27.80;90.50;;;;;;5010074;28;20384;-89
2021/12/01 04:30:30;;;;;;;1.70;1.60;;;28.10;89.50;;;;;;5010967;28;20395;-88
2021/12/01 04:32:57;;;;;;;2.45;1.63;;;28.50;86.40;;;;;;4993460;28;20379;-90
2021/12/01 04:35:27;;;;;;;3.40;1.75;;;28.90;85.70;;;;;;5010885;28;20782;-88
2021/12/01 04:37:55;;;;;;;2.03;1.58;;;29.40;79.30;;;;;;5010766;28;20421;-88
2021/12/01 04:40:22;;;;;;;8.00;2.00;;;29.90;79.90;;;;;;5011128;28;20425;-88
2021/12/01 04:42:49;;;;;;;3.17;1.73;;;31.10;74.10;;;;;;5010849;28;20730;-88
2021/12/01 04:45:19;;;;;;;1.83;1.70;;;31.30;71.60;;;;;;5010530;28;20419;-88
2021/12/01 04:47:51;;;;;;;2.17;1.70;;;31.00;71.60;;;;;;5010557;28;20391;-88
2021/12/01 04:50:21;;;;;;;1.88;1.60;;;31.00;70.90;;;;;;4993417;28;20913;-88
2021/12/01 04:52:51;;;;;;;2.35;1.70;;;31.70;68.10;;;;;;5010867;28;20383;-89
2021/12/01 04:55:18;;;;;;;2.70;1.60;;;31.80;68.20;;;;;;5010615;28;20390;-88
2021/12/01 04:57:47;;;;;;;2.15;1.45;;;32.90;65.10;;;;;;4992396;28;20458;-89
2021/12/01 05:00:18;;;;;;;2.90;1.40;;;34.40;60.60;;;;;;5010315;28;20419;-88
2021/12/01 05:02:45;;;;;;;2.75;1.60;;;35.10;57.00;;;;;;5010001;28;20379;-88
2021/12/01 05:05:13;;;;;;;1.40;1.30;;;34.60;56.20;;;;;;4992387;28;20817;-89
2021/12/01 05:07:40;;;;;;;2.13;1.50;;;33.90;55.60;;;;;;5011981;28;20414;-89
2021/12/01 05:10:08;;;;;;;2.45;1.35;;;32.80;58.80;;;;;;4996530;28;20495;-89
2021/12/01 05:12:37;;;;;;;1.73;1.30;;;31.90;61.70;;;;;;5012190;28;20436;-91
2021/12/01 05:15:06;;;;;;;1.63;1.10;;;31.90;63.80;;;;;;5014701;28;20397;-91
2021/12/01 05:17:33;;;;;;;1.20;1.00;;;32.50;59.90;;;;;;5020619;28;20403;-90
2021/12/01 05:20:00;;;;;;;1.08;1.02;;;33.50;59.40;;;;;;5018774;28;20398;-88
2021/12/01 05:22:27;;;;;;;1.20;0.88;;;35.00;55.30;;;;;;5015209;28;20405;-92
2021/12/01 05:24:55;;;;;;;1.20;0.90;;;35.40;55.10;;;;;;4997979;28;20409;-92
2021/12/01 05:27:22;;;;;;;2.77;0.83;;;35.10;53.70;;;;;;4998429;28;20381;-90
2021/12/01 05:29:50;;;;;;;3.47;0.90;;;34.50;53.90;;;;;;5003377;28;20385;-92
2021/12/01 05:32:18;;;;;;;0.97;0.80;;;33.50;56.20;;;;;;5001572;28;20385;-89
2021/12/01 05:34:45;;;;;;;1.10;0.80;;;32.80;58.60;;;;;;5012785;28;20412;-90
2021/12/01 05:37:12;;;;;;;0.90;0.90;;;32.50;59.50;;;;;;5007868;28;20424;-89
2021/12/01 05:39:44;;;;;;;1.15;0.90;;;32.10;58.80;;;;;;4999508;28;20373;-88
2021/12/01 05:42:12;;;;;;;0.80;0.80;;;31.60;59.80;;;;;;5007525;28;20391;-89
2021/12/01 05:44:41;;;;;;;1.33;0.80;;;30.90;61.30;;;;;;4996143;28;20423;-89
2021/12/01 05:47:09;;;;;;;1.05;0.90;;;30.30;64.30;;;;;;4995727;28;20385;-90
2021/12/01 05:49:44;;;;;;;1.00;1.00;;;29.80;66.10;;;;;;5004513;28;20401;-90
2021/12/01 05:52:13;;;;;;;1.73;1.10;;;29.20;68.00;;;;;;5000352;28;20384;-89
2021/12/01 05:54:40;;;;;;;1.42;1.02;;;28.80;70.90;;;;;;5012002;28;20932;-89
2021/12/01 05:57:08;;;;;;;1.25;1.00;;;28.80;70.90;;;;;;4993063;28;20419;-88
2021/12/01 05:59:35;;;;;;;0.80;0.80;;;28.80;72.40;;;;;;4997458;28;20387;-88
2021/12/01 06:02:02;;;;;;;0.90;0.80;;;28.60;72.80;;;;;;5004500;28;20392;-89
2021/12/01 06:04:31;;;;;;;22.57;5.83;;;28.60;71.00;;;;;;4998037;28;20553;-89
2021/12/01 06:06:58;;;;;;;3.95;1.63;;;28.50;72.70;;;;;;5006226;28;20412;-88
2021/12/01 06:09:25;;;;;;;1.10;0.90;;;28.70;73.10;;;;;;4992734;28;20377;-86
2021/12/01 06:11:53;;;;;;;53.35;10.32;;;28.70;72.60;;;;;;5007618;28;20399;-88
2021/12/01 06:14:20;;;;;;;13.43;2.97;;;28.70;72.80;;;;;;4993189;28;20387;-88
2021/12/01 06:16:47;;;;;;;2.63;1.80;;;28.60;73.10;;;;;;5011781;28;20388;-87
2021/12/01 06:19:15;;;;;;;3.13;1.40;;;28.70;72.60;;;;;;5005662;28;20476;-88
2021/12/01 06:21:42;;;;;;;1.33;1.10;;;29.00;72.40;;;;;;4996752;28;20395;-89
2021/12/01 06:24:09;;;;;;;1.05;0.95;;;29.10;72.10;;;;;;5002735;28;20413;-92
2021/12/01 06:26:38;;;;;;;1.42;0.77;;;29.20;70.60;;;;;;4975250;28;20421;-91
2021/12/01 06:29:08;;;;;;;1.73;1.00;;;29.20;70.60;;;;;;4985171;28;20399;-89
2021/12/01 06:31:35;;;;;;;6.82;1.70;;;29.00;71.10;;;;;;5010961;28;20758;-89
2021/12/01 06:34:02;;;;;;;1.30;1.20;;;28.70;73.30;;;;;;5008458;28;20895;-91
2021/12/01 06:36:30;;;;;;;1.43;0.93;;;28.40;73.60;;;;;;4975798;28;20480;-91
2021/12/01 06:38:57;;;;;;;2.27;0.90;;;28.30;75.40;;;;;;4977884;28;20426;-88
2021/12/01 06:41:24;;;;;;;1.15;0.98;;;28.40;75.20;;;;;;5010806;28;20380;-90
2021/12/01 06:43:51;;;;;;;1.73;1.00;;;28.20;73.80;;;;;;5009841;28;20411;-89
2021/12/01 06:46:18;;;;;;;1.60;1.00;;;28.00;75.30;;;;;;4993869;28;20825;-91
2021/12/01 06:48:45;;;;;;;1.67;1.15;;;27.70;77.40;;;;;;5003893;28;20887;-88
2021/12/01 06:51:13;;;;;;;1.58;1.00;;;27.50;78.00;;;;;;4991114;28;20881;-89
2021/12/01 06:53:40;;;;;;;1.25;0.90;;;27.60;78.40;;;;;;4974894;28;20534;-89
2021/12/01 06:56:08;;;;;;;2.58;1.17;;;27.50;78.50;;;;;;4973574;28;21175;-89
2021/12/01 06:58:36;;;;;;;4.22;1.30;;;27.40;78.30;;;;;;5006188;28;20397;-89
2021/12/01 07:01:06;;;;;;;2.20;0.93;;;27.20;80.60;;;;;;5010823;28;20933;-90
2021/12/01 07:03:34;;;;;;;0.90;0.80;;;27.10;80.00;;;;;;5002992;28;20407;-90
2021/12/01 07:06:01;;;;;;;1.30;0.90;;;27.00;80.90;;;;;;5004813;28;20400;-88
2021/12/01 07:08:29;;;;;;;3.08;1.20;;;27.00;81.70;;;;;;4983532;28;20922;-88
2021/12/01 07:10:56;;;;;;;1.40;0.73;;;26.90;81.10;;;;;;4991062;28;20908;-88
2021/12/01 07:13:23;;;;;;;1.25;1.00;;;26.70;81.80;;;;;;5005949;28;20406;-88
2021/12/01 07:15:50;;;;;;;1.42;0.70;;;26.50;83.70;;;;;;5006563;28;20395;-90
2021/12/01 07:18:18;;;;;;;3.65;1.50;;;26.30;84.90;;;;;;5006899;28;20893;-89
2021/12/01 07:20:45;;;;;;;2.67;1.20;;;26.20;86.10;;;;;;5004445;28;20389;-89
2021/12/01 07:23:13;;;;;;;1.50;1.00;;;26.00;86.80;;;;;;5003223;28;20399;-89
2021/12/01 07:25:48;;;;;;;2.20;1.00;;;26.00;88.80;;;;;;5017295;28;20455;-90
2021/12/01 07:28:15;;;;;;;1.50;0.80;;;25.90;89.10;;;;;;5011393;28;20454;-89
2021/12/01 07:30:43;;;;;;;1.40;0.70;;;25.80;88.90;;;;;;4997249;28;20428;-87
2021/12/01 07:33:11;;;;;;;2.83;0.90;;;25.80;88.90;;;;;;5013741;28;20383;-89
2021/12/01 07:35:38;;;;;;;1.98;1.35;;;25.70;89.70;;;;;;5008771;28;21886;-90
2021/12/01 07:38:05;;;;;;;2.13;0.98;;;25.60;90.10;;;;;;5008648;28;20386;-93
2021/12/01 07:40:32;;;;;;;3.03;1.00;;;25.60;90.40;;;;;;4999693;28;20415;-91
2021/12/01 07:42:59;;;;;;;1.08;0.55;;;25.50;90.20;;;;;;4999386;28;20392;-91
2021/12/01 07:45:27;;;;;;;0.90;0.80;;;25.50;90.20;;;;;;4999012;28;20419;-94
2021/12/01 07:47:54;;;;;;;0.63;0.50;;;25.40;90.70;;;;;;5006848;28;20387;-89
2021/12/01 07:50:22;;;;;;;0.80;0.50;;;25.20;91.40;;;;;;5000659;28;20420;-87
2021/12/01 07:52:50;;;;;;;1.77;0.60;;;25.00;91.90;;;;;;5002386;28;20409;-93
2021/12/01 07:55:18;;;;;;;1.40;0.60;;;24.90;92.50;;;;;;5002835;28;20424;-89
2021/12/01 07:57:46;;;;;;;0.60;0.60;;;24.90;92.50;;;;;;4987592;28;20404;-91
2021/12/01 08:00:14;;;;;;;0.40;0.40;;;24.70;92.70;;;;;;4996844;28;20455;-89
2021/12/01 08:02:42;;;;;;;1.52;0.50;;;24.70;93.10;;;;;;4995972;28;20400;-91
2021/12/01 08:05:09;;;;;;;0.75;0.40;;;24.60;93.20;;;;;;5011206;28;20406;-92
2021/12/01 08:07:38;;;;;;;0.77;0.55;;;24.60;93.50;;;;;;5005259;28;20434;-92
2021/12/01 08:10:08;;;;;;;0.85;0.50;;;24.50;93.90;;;;;;5007339;28;20888;-92
2021/12/01 08:12:35;;;;;;;1.00;0.55;;;24.50;94.30;;;;;;5005770;28;20506;-92
2021/12/01 08:15:07;;;;;;;1.07;0.80;;;24.50;94.60;;;;;;5012362;28;20383;-92
2021/12/01 08:17:35;;;;;;;1.98;0.73;;;24.50;95.00;;;;;;5002251;28;20888;-90
2021/12/01 08:20:10;;;;;;;2.45;0.75;;;24.50;95.20;;;;;;4998340;28;20422;-92
2021/12/01 08:22:56;;;;;;;1.40;0.60;;;24.50;95.30;;;;;;5020345;28;20379;-93
2021/12/01 08:25:24;;;;;;;1.40;0.60;;;24.60;95.20;;;;;;4995898;28;20442;-90
2021/12/01 08:27:51;;;;;;;1.55;0.70;;;24.50;95.60;;;;;;4989501;28;20385;-91
2021/12/01 08:30:18;;;;;;;0.65;0.57;;;24.40;96.40;;;;;;4989934;28;20602;-91
2021/12/01 08:32:46;;;;;;;0.80;0.50;;;24.30;96.80;;;;;;4987993;28;20884;-92
2021/12/01 08:35:14;;;;;;;0.75;0.60;;;24.20;97.20;;;;;;5003074;28;20397;-90
2021/12/01 08:37:42;;;;;;;1.63;0.60;;;24.00;98.00;;;;;;5013191;28;20490;-90
2021/12/01 08:40:13;;;;;;;3.22;0.73;;;23.90;98.50;;;;;;5015943;28;20379;-91
2021/12/01 08:42:41;;;;;;;0.87;0.60;;;23.90;98.70;;;;;;4998094;28;20399;-91
2021/12/01 08:45:09;;;;;;;1.02;0.60;;;23.80;99.20;;;;;;4989215;28;20409;-91
2021/12/01 08:47:36;;;;;;;1.70;0.60;;;23.60;99.60;;;;;;4993795;28;20387;-91
2021/12/01 08:50:05;;;;;;;1.10;0.68;;;23.50;99.90;;;;;;5008513;28;20387;-91
2021/12/01 08:52:33;;;;;;;1.67;0.52;;;23.50;99.90;;;;;;5015143;28;20450;-91
2021/12/01 08:55:00;;;;;;;1.60;0.60;;;23.40;99.90;;;;;;5002468;28;20397;-90
2021/12/01 08:57:27;;;;;;;1.25;0.60;;;23.20;99.90;;;;;;4999836;28;20379;-92
2021/12/01 08:59:54;;;;;;;1.48;0.60;;;23.00;99.90;;;;;;5002117;28;20911;-90
2021/12/01 09:02:21;;;;;;;0.82;0.50;;;22.90;99.90;;;;;;4988978;28;20447;-90
2021/12/01 09:04:50;;;;;;;1.08;0.77;;;22.80;99.90;;;;;;4988262;28;20420;-89
2021/12/01 09:07:19;;;;;;;2.30;0.60;;;22.70;99.90;;;;;;4997405;28;20377;-92
2021/12/01 09:09:46;;;;;;;0.95;0.70;;;22.60;99.90;;;;;;5007268;28;20383;-92
2021/12/01 09:12:14;;;;;;;1.20;0.50;;;22.50;99.90;;;;;;5006462;28;20403;-91
2021/12/01 09:14:44;;;;;;;0.60;0.60;;;22.40;99.90;;;;;;4994404;28;20380;-90
2021/12/01 09:17:13;;;;;;;1.30;0.70;;;22.40;99.90;;;;;;5010855;28;20390;-89
2021/12/01 09:19:41;;;;;;;0.80;0.60;;;22.20;99.90;;;;;;4992904;28;20383;-90
2021/12/01 09:22:08;;;;;;;3.25;0.80;;;22.20;99.90;;;;;;4993710;28;20895;-91
2021/12/01 09:24:35;;;;;;;0.93;0.70;;;22.10;99.90;;;;;;5012530;28;20469;-91
2021/12/01 09:27:03;;;;;;;2.00;0.60;;;22.00;99.90;;;;;;5014694;28;20437;-89
2021/12/01 09:29:30;;;;;;;1.85;0.60;;;21.90;99.90;;;;;;5011668;28;20469;-90
2021/12/01 09:31:59;;;;;;;0.70;0.50;;;21.90;99.90;;;;;;5009369;28;20421;-88
2021/12/01 09:34:26;;;;;;;1.35;0.60;;;21.80;99.90;;;;;;5010077;28;20379;-89
2021/12/01 09:36:53;;;;;;;0.40;0.40;;;21.80;99.90;;;;;;5010333;28;20371;-89
2021/12/01 09:39:21;;;;;;;0.65;0.50;;;21.40;99.90;;;;;;4992983;28;20396;-88
2021/12/01 09:41:49;;;;;;;0.82;0.50;;;21.70;99.90;;;;;;4974902;28;20450;-90
2021/12/01 09:44:17;;;;;;;0.50;0.40;;;21.70;99.90;;;;;;4973305;28;20453;-89
2021/12/01 09:46:44;;;;;;;0.60;0.60;;;21.60;99.90;;;;;;4980798;28;20379;-91
2021/12/01 09:49:12;;;;;;;0.80;0.60;;;21.70;99.90;;;;;;4991908;28;20453;-90
2021/12/01 09:51:39;;;;;;;0.80;0.50;;;21.70;99.90;;;;;;4995230;28;20443;-90
2021/12/01 09:54:06;;;;;;;3.20;0.60;;;21.70;99.90;;;;;;4975685;28;20389;-90
2021/12/01 09:56:34;;;;;;;0.93;0.60;;;21.70;99.90;;;;;;4980056;28;20409;-90
2021/12/01 09:59:01;;;;;;;2.53;0.60;;;21.70;99.90;;;;;;4999337;28;20387;-89
2021/12/01 10:01:30;;;;;;;1.27;0.63;;;21.60;99.90;;;;;;4993959;28;20394;-91
2021/12/01 10:03:58;;;;;;;1.30;0.67;;;20.60;99.90;;;;;;4992601;28;20407;-91
2021/12/01 10:06:27;;;;;;;2.40;0.80;;;21.60;99.90;;;;;;4984454;28;20908;-90
2021/12/01 10:09:01;;;;;;;2.33;0.63;;;21.60;99.90;;;;;;5005076;28;20387;-90
2021/12/01 10:11:35;;;;;;;2.75;0.60;;;21.60;99.90;;;;;;4975895;28;20404;-90
2021/12/01 10:14:05;;;;;;;2.00;0.70;;;21.50;99.90;;;;;;4981670;28;20406;-90
2021/12/01 10:16:35;;;;;;;0.93;0.70;;;21.50;99.90;;;;;;4992766;28;20371;-92
2021/12/01 10:19:09;;;;;;;2.42;0.80;;;21.40;99.90;;;;;;4999467;28;20760;-90
2021/12/01 10:21:42;;;;;;;1.58;0.70;;;21.40;99.90;;;;;;4980301;28;20395;-91
2021/12/01 10:24:16;;;;;;;1.42;0.68;;;21.30;99.90;;;;;;4999648;28;20899;-94
2021/12/01 10:26:46;;;;;;;2.75;0.73;;;21.30;99.90;;;;;;4990786;28;20397;-91
2021/12/01 10:29:17;;;;;;;2.00;1.02;;;21.20;99.90;;;;;;4989309;28;20403;-90
2021/12/01 10:31:49;;;;;;;3.20;0.98;;;21.20;99.90;;;;;;4972916;28;20443;-89
2021/12/01 10:34:24;;;;;;;1.88;0.90;;;21.20;99.90;;;;;;4974021;28;20380;-92
2021/12/01 10:37:07;;;;;;;2.15;0.80;;;21.20;99.90;;;;;;4991282;28;20477;-90
2021/12/01 10:39:34;;;;;;;1.88;0.70;;;21.20;99.90;;;;;;4992771;28;20827;-90
2021/12/01 10:42:08;;;;;;;1.48;0.70;;;21.10;99.90;;;;;;4994341;28;20455;-90
2021/12/01 10:44:36;;;;;;;1.50;0.80;;;21.10;99.90;;;;;;4992981;28;20419;-91
2021/12/01 10:47:12;;;;;;;1.23;0.70;;;21.00;99.90;;;;;;4985686;28;20431;-88
2021/12/01 10:49:46;;;;;;;1.60;0.90;;;21.00;99.90;;;;;;5007863;28;20451;-89
2021/12/01 10:52:39;;;;;;;2.42;1.10;;;20.90;99.90;;;;;;5026096;28;20374;-90
2021/12/01 10:55:14;;;;;;;3.08;1.00;;;20.80;99.90;;;;;;5022545;28;20396;-91
2021/12/01 10:57:49;;;;;;;1.63;0.90;;;20.70;99.90;;;;;;5009078;28;20391;-92
2021/12/01 11:00:23;;;;;;;1.53;0.80;;;20.70;99.90;;;;;;4997783;28;20391;-90
2021/12/01 11:02:51;;;;;;;1.60;0.73;;;20.60;99.90;;;;;;4989243;28;20383;-91
2021/12/01 11:05:39;;;;;;;1.45;0.90;;;20.60;99.90;;;;;;4991115;28;20457;-90
2021/12/01 11:08:21;;;;;;;1.05;0.70;;;20.70;99.90;;;;;;5005082;28;20391;-89
2021/12/01 11:10:58;;;;;;;1.52;0.80;;;20.60;99.90;;;;;;4988767;28;20385;-90
2021/12/01 11:13:27;;;;;;;0.93;0.70;;;20.60;99.90;;;;;;4971854;28;20405;-89
2021/12/01 11:16:03;;;;;;;2.10;0.68;;;20.50;99.90;;;;;;4970567;28;20392;-90
2021/12/01 11:18:33;;;;;;;1.10;0.63;;;20.50;99.90;;;;;;4988436;28;20404;-88
2021/12/01 11:21:03;;;;;;;0.90;0.70;;;20.50;99.90;;;;;;4988175;28;20439;-90
2021/12/01 11:23:33;;;;;;;1.77;0.80;;;20.40;99.90;;;;;;4988178;28;20403;-93
2021/12/01 11:26:11;;;;;;;0.80;0.65;;;20.40;99.90;;;;;;4972442;28;20401;-89
2021/12/01 11:28:49;;;;;;;0.88;0.73;;;20.30;99.90;;;;;;4989475;28;20863;-94
2021/12/01 11:31:34;;;;;;;5.22;3.35;;;20.30;99.90;;;;;;4991470;28;21193;-92
2021/12/01 11:34:04;;;;;;;2.93;1.53;;;20.40;99.90;;;;;;4992378;28;20388;-92
2021/12/01 11:36:37;;;;;;;0.90;0.50;;;20.50;99.90;;;;;;4989562;28;20389;-93
2021/12/01 11:39:12;;;;;;;1.17;0.60;;;20.50;99.90;;;;;;4988769;28;20395;-91
2021/12/01 11:41:43;;;;;;;1.80;0.50;;;20.60;99.90;;;;;;4971350;28;20403;-92
2021/12/01 11:44:14;;;;;;;2.03;0.70;;;21.40;99.90;;;;;;4989176;28;20439;-89
2021/12/01 11:46:44;;;;;;;2.13;0.60;;;20.80;99.90;;;;;;4989862;28;20400;-89
2021/12/01 11:49:27;;;;;;;1.35;0.80;;;21.00;99.90;;;;;;4978419;28;20393;-88
2021/12/01 11:52:07;;;;;;;1.25;0.70;;;20.90;99.90;;;;;;4990459;28;20389;-90
2021/12/01 11:54:41;;;;;;;1.65;0.65;;;21.00;99.90;;;;;;4988865;28;20445;-95
2021/12/01 11:57:50;;;;;;;1.80;0.60;;;21.10;99.90;;;;;;4972296;28;20381;-89
2021/12/01 12:00:18;;;;;;;2.20;0.60;;;21.10;99.90;;;;;;4935009;28;20428;-90
2021/12/01 12:02:48;;;;;;;1.40;0.57;;;21.00;99.90;;;;;;4989341;28;20399;-91
2021/12/01 12:05:19;;;;;;;1.20;0.70;;;21.00;99.90;;;;;;4989119;28;20885;-92
2021/12/01 12:07:46;;;;;;;1.00;0.60;;;21.00;99.90;;;;;;4989611;28;20473;-93
2021/12/01 12:10:20;;;;;;;1.27;0.80;;;20.90;99.90;;;;;;4955420;28;20769;-89
2021/12/01 12:13:08;;;;;;;1.75;0.65;;;20.80;99.90;;;;;;4970693;28;20506;-89
2021/12/01 12:15:54;;;;;;;1.07;0.77;;;20.60;99.90;;;;;;4989251;28;20408;-88
2021/12/01 12:18:52;;;;;;;0.77;0.77;;;20.50;99.90;;;;;;4971915;28;20404;-89
2021/12/01 12:24:25;;;;;;;1.38;0.90;;;20.40;99.90;;;;;;4957101;28;20409;-91
2021/12/01 12:26:59;;;;;;;1.25;0.90;;;20.30;99.90;;;;;;4970562;28;20471;-92
2021/12/01 12:29:29;;;;;;;0.67;0.60;;;20.30;99.90;;;;;;4960751;28;20424;-89
2021/12/01 12:32:17;;;;;;;1.90;0.73;;;20.20;99.90;;;;;;4991198;28;20389;-96
2021/12/01 12:34:55;;;;;;;0.68;0.60;;;20.10;99.90;;;;;;4977534;28;20389;-89
2021/12/01 12:37:32;;;;;;;1.45;0.65;;;20.10;99.90;;;;;;4975343;28;20734;-92
2021/12/01 12:40:02;;;;;;;1.98;1.00;;;20.00;99.90;;;;;;4979766;28;20412;-89
2021/12/01 12:42:29;;;;;;;3.05;1.45;;;19.90;99.90;;;;;;4978353;28;20414;-90
2021/12/01 12:44:58;;;;;;;2.00;1.70;;;19.80;99.90;;;;;;5000691;28;20422;-88
2021/12/01 12:47:47;;;;;;;1.77;1.10;;;19.80;99.90;;;;;;5000349;28;20485;-90
2021/12/01 12:50:17;;;;;;;1.00;0.50;;;19.70;99.90;;;;;;4981202;28;20386;-93
2021/12/01 12:52:54;;;;;;;2.03;0.70;;;19.60;99.90;;;;;;4974934;28;20465;-95
2021/12/01 12:55:25;;;;;;;1.70;0.65;;;19.60;99.90;;;;;;4973829;28;20897;-92
2021/12/01 12:58:04;;;;;;;1.08;0.70;;;19.60;99.90;;;;;;4968583;28;20830;-90
2021/12/01 13:00:56;;;;;;;1.35;0.85;;;19.50;99.90;;;;;;4975513;28;20400;-89
2021/12/01 13:03:28;;;;;;;1.98;0.70;;;19.50;99.90;;;;;;4992766;28;20389;-89
2021/12/01 13:06:00;;;;;;;1.52;0.90;;;19.40;99.90;;;;;;4976328;28;20860;-92
2021/12/01 13:08:30;;;;;;;2.25;0.98;;;19.40;99.90;;;;;;4970002;28;20393;-91
2021/12/01 13:11:08;;;;;;;1.02;0.80;;;19.40;99.90;;;;;;4975763;28;20409;-89
2021/12/01 13:13:40;;;;;;;1.58;1.00;;;19.30;99.90;;;;;;4960239;28;20400;-90